Time;durP1;ratioP1;P1;durP2;ratioP2;P2;SDS_P1;SDS_P2;PMS_P1;PMS_P2;Temp;Humidity;BMP_temperature;BMP_pressure;BME280_temperature;BME280_humidity;BME280_pressure;Samples;Min_cycle;Max_cycle;Signal;HPM_P1;HPM_P2
2021/05/12 00:00:51;;;;;;;2.40;2.30;;;12.50;99.90;;;;;;5082844;28;20047;-80
2021/05/12 00:03:19;;;;;;;2.20;2.10;;;12.50;99.90;;;;;;5083335;28;20082;-80
2021/05/12 00:05:45;;;;;;;2.30;2.17;;;12.60;99.90;;;;;;5082128;28;20139;-80
2021/05/12 00:08:12;;;;;;;2.25;2.13;;;12.50;99.90;;;;;;5100642;28;20055;-81
2021/05/12 00:10:39;;;;;;;2.47;2.38;;;12.50;99.90;;;;;;5106095;28;20059;-81
2021/05/12 00:13:06;;;;;;;2.20;2.10;;;12.40;99.90;;;;;;5094720;28;20051;-80
2021/05/12 00:15:32;;;;;;;1.90;1.80;;;12.50;99.90;;;;;;5111511;28;20056;-81
2021/05/12 00:17:59;;;;;;;3.83;2.80;;;12.50;99.90;;;;;;5110090;28;20052;-80
2021/05/12 00:20:28;;;;;;;3.15;2.10;;;12.50;99.90;;;;;;5109667;28;20462;-79
2021/05/12 00:25:23;;;;;;;3.65;2.05;;;12.30;99.90;;;;;;5108478;28;20048;-79
2021/05/12 00:27:49;;;;;;;2.50;2.40;;;12.40;99.90;;;;;;5108556;28;20056;-81
2021/05/12 00:30:19;;;;;;;2.67;2.47;;;12.40;99.90;;;;;;5107721;28;20397;-80
2021/05/12 00:32:46;;;;;;;3.55;2.95;;;12.40;99.90;;;;;;5105458;28;20460;-79
2021/05/12 00:35:13;;;;;;;4.18;3.33;;;12.30;99.90;;;;;;5104564;28;20044;-80
2021/05/12 00:37:41;;;;;;;4.20;3.60;;;12.40;99.90;;;;;;5106355;28;20065;-81
2021/05/12 00:40:09;;;;;;;3.28;3.08;;;12.40;99.90;;;;;;5093546;28;20044;-81
2021/05/12 00:42:36;;;;;;;4.35;2.70;;;12.30;99.90;;;;;;5094891;28;20070;-81
2021/05/12 00:45:09;;;;;;;5.07;2.72;;;12.40;99.90;;;;;;5093641;28;20048;-80
2021/05/12 00:47:36;;;;;;;7.65;2.50;;;12.40;99.90;;;;;;5111043;28;20066;-81
2021/05/12 00:50:05;;;;;;;2.50;2.38;;;12.40;99.90;;;;;;5110137;28;20066;-79
2021/05/12 00:52:32;;;;;;;3.40;3.10;;;12.30;99.90;;;;;;5091234;28;20051;-80
2021/05/12 00:54:59;;;;;;;3.75;2.50;;;12.30;99.90;;;;;;5108288;28;20432;-81
2021/05/12 00:57:25;;;;;;;4.00;2.42;;;12.40;99.90;;;;;;5088786;28;20072;-81
2021/05/12 00:59:53;;;;;;;2.13;2.03;;;12.30;99.90;;;;;;5105856;28;20051;-80
2021/05/12 01:02:21;;;;;;;2.40;2.30;;;12.40;99.90;;;;;;5105427;28;20113;-80
2021/05/12 01:04:49;;;;;;;2.25;2.15;;;12.40;99.90;;;;;;5086933;28;20048;-80
2021/05/12 01:07:16;;;;;;;2.28;2.15;;;12.40;99.90;;;;;;5085088;28;20081;-81
2021/05/12 01:09:42;;;;;;;2.90;2.70;;;12.30;99.90;;;;;;5084491;28;20048;-79
2021/05/12 01:12:09;;;;;;;2.40;2.30;;;12.30;99.90;;;;;;5084007;28;20079;-80
2021/05/12 01:14:36;;;;;;;4.43;2.85;;;12.30;99.90;;;;;;5083003;28;20052;-79
2021/05/12 01:17:03;;;;;;;3.10;2.90;;;12.30;99.90;;;;;;5082516;28;20051;-79
2021/05/12 01:19:30;;;;;;;3.83;3.53;;;12.30;99.90;;;;;;5082447;28;20080;-80
2021/05/12 01:21:57;;;;;;;3.83;3.17;;;12.30;99.90;;;;;;5100843;28;20113;-80
2021/05/12 01:24:24;;;;;;;3.47;3.00;;;12.30;99.90;;;;;;5080751;28;20142;-80
2021/05/12 01:26:51;;;;;;;3.55;3.25;;;12.20;99.90;;;;;;5080923;28;20044;-80
2021/05/12 01:29:19;;;;;;;3.40;3.10;;;12.30;99.90;;;;;;5080609;28;20043;-79
2021/05/12 01:31:46;;;;;;;3.38;3.17;;;12.30;99.90;;;;;;5097885;28;20044;-79
2021/05/12 01:34:18;;;;;;;3.47;3.25;;;12.20;99.90;;;;;;5098614;28;20067;-79
2021/05/12 01:36:46;;;;;;;3.75;3.45;;;12.20;99.90;;;;;;5079360;28;20146;-80
2021/05/12 01:39:14;;;;;;;4.05;3.70;;;12.20;99.90;;;;;;5078956;28;20504;-79
2021/05/12 01:41:41;;;;;;;4.35;3.28;;;12.20;99.90;;;;;;5078832;28;20048;-79
2021/05/12 01:44:11;;;;;;;3.60;3.40;;;12.30;99.90;;;;;;5078512;28;20079;-80
2021/05/12 01:46:41;;;;;;;3.90;3.45;;;12.30;99.90;;;;;;5096639;28;20084;-79
2021/05/12 01:49:09;;;;;;;4.57;3.70;;;12.30;99.90;;;;;;5096170;28;20073;-79
2021/05/12 01:51:36;;;;;;;3.40;3.13;;;12.30;99.90;;;;;;5082378;28;20131;-80
2021/05/12 01:54:07;;;;;;;2.75;2.55;;;12.40;99.90;;;;;;5083312;28;20048;-79
2021/05/12 01:56:35;;;;;;;4.10;2.55;;;12.30;99.90;;;;;;5083694;28;20052;-80
2021/05/12 01:59:04;;;;;;;3.65;2.58;;;12.30;99.90;;;;;;5101333;28;20048;-78
2021/05/12 02:01:31;;;;;;;4.00;2.65;;;12.30;99.90;;;;;;5106046;28;20055;-81
2021/05/12 02:04:08;;;;;;;5.38;3.47;;;12.30;99.90;;;;;;5097642;28;20097;-80
2021/05/12 02:06:36;;;;;;;4.95;4.55;;;12.30;99.90;;;;;;5097407;28;20102;-80
2021/05/12 02:09:07;;;;;;;4.20;3.88;;;12.30;99.90;;;;;;5114138;28;20052;-81
2021/05/12 02:11:38;;;;;;;5.80;5.25;;;12.30;99.90;;;;;;5095821;28;20078;-79
2021/05/12 02:14:06;;;;;;;4.20;3.80;;;12.30;99.90;;;;;;5094570;28;20074;-81
2021/05/12 02:16:33;;;;;;;4.40;4.10;;;12.20;99.90;;;;;;5093929;28;20048;-80
2021/05/12 02:19:00;;;;;;;7.10;5.38;;;12.20;99.90;;;;;;5110616;28;20052;-80
2021/05/12 02:21:27;;;;;;;6.60;5.43;;;12.20;99.90;;;;;;5093897;28;20044;-79
2021/05/12 02:23:54;;;;;;;5.18;4.78;;;12.10;99.90;;;;;;5096059;28;20058;-79
2021/05/12 02:26:20;;;;;;;4.78;3.95;;;12.00;99.90;;;;;;5113726;28;20054;-80
2021/05/12 02:28:48;;;;;;;4.50;4.20;;;12.10;99.90;;;;;;5114050;28;20069;-80
2021/05/12 02:31:14;;;;;;;5.93;5.05;;;12.10;99.90;;;;;;5094746;28;20047;-80
2021/05/12 02:33:41;;;;;;;7.15;4.80;;;12.20;99.90;;;;;;5093157;28;20068;-81
2021/05/12 02:36:08;;;;;;;5.90;5.40;;;12.20;99.90;;;;;;5092099;28;20051;-80
2021/05/12 02:38:35;;;;;;;5.05;4.65;;;12.30;99.90;;;;;;5093255;28;20411;-80
2021/05/12 02:41:02;;;;;;;6.63;5.72;;;12.30;99.90;;;;;;5093804;28;20503;-80
2021/05/12 02:43:28;;;;;;;3.15;2.90;;;12.30;99.90;;;;;;5093503;28;20044;-80
2021/05/12 02:45:55;;;;;;;3.22;3.03;;;12.30;99.90;;;;;;5092494;28;20044;-79
2021/05/12 02:48:22;;;;;;;3.00;2.88;;;12.30;99.90;;;;;;5091659;28;20044;-80
2021/05/12 02:50:48;;;;;;;2.58;2.38;;;12.30;99.90;;;;;;5109353;28;20040;-80
2021/05/12 02:53:15;;;;;;;2.47;2.30;;;12.30;99.90;;;;;;5091224;28;20040;-79
2021/05/12 02:55:42;;;;;;;4.50;1.92;;;12.30;99.90;;;;;;5109666;28;20055;-79
2021/05/12 02:58:09;;;;;;;1.88;1.70;;;12.30;99.90;;;;;;5109221;28;20048;-80
2021/05/12 03:00:39;;;;;;;2.20;1.70;;;12.30;99.90;;;;;;5089976;28;20076;-80
2021/05/12 03:03:08;;;;;;;1.73;1.63;;;12.30;99.90;;;;;;5107367;28;20055;-79
2021/05/12 03:05:35;;;;;;;2.10;2.00;;;12.30;99.90;;;;;;5108738;28;20040;-80
2021/05/12 03:08:02;;;;;;;2.60;2.40;;;12.30;99.90;;;;;;5107120;28;20051;-79
2021/05/12 03:10:33;;;;;;;4.38;2.80;;;12.20;99.90;;;;;;5108142;28;20087;-79
2021/05/12 03:13:03;;;;;;;3.10;2.90;;;12.20;99.90;;;;;;5087832;28;20040;-79
2021/05/12 03:15:30;;;;;;;3.10;2.90;;;12.20;99.90;;;;;;5087276;28;20462;-79
2021/05/12 03:17:58;;;;;;;3.40;2.70;;;12.20;99.90;;;;;;5087470;28;20134;-79
2021/05/12 03:20:26;;;;;;;4.50;3.40;;;12.20;99.90;;;;;;5087650;28;20075;-79
2021/05/12 03:22:54;;;;;;;5.70;4.43;;;12.10;99.90;;;;;;5105595;28;20058;-79
2021/05/12 03:25:21;;;;;;;7.05;4.68;;;12.10;99.90;;;;;;5087008;28;20080;-79
2021/05/12 03:27:48;;;;;;;5.93;5.43;;;12.10;99.90;;;;;;5104677;28;20113;-78
2021/05/12 03:30:19;;;;;;;10.73;6.03;;;12.10;99.90;;;;;;5085909;28;20079;-79
2021/05/12 03:32:47;;;;;;;7.32;6.63;;;12.20;99.90;;;;;;5104545;28;20044;-79
2021/05/12 03:35:14;;;;;;;7.68;6.47;;;12.20;99.90;;;;;;5086180;28;20083;-80
2021/05/12 03:37:41;;;;;;;10.15;6.88;;;12.20;99.90;;;;;;5085138;28;20052;-79
2021/05/12 03:40:08;;;;;;;5.82;5.20;;;12.20;99.90;;;;;;5104081;28;20116;-79
2021/05/12 03:42:36;;;;;;;9.65;6.80;;;12.20;99.90;;;;;;5084526;28;20071;-79
2021/05/12 03:45:04;;;;;;;7.28;5.35;;;12.20;99.90;;;;;;5102477;28;20052;-79
2021/05/12 03:47:31;;;;;;;6.28;5.68;;;12.20;99.90;;;;;;5102396;28;20055;-79
2021/05/12 03:49:58;;;;;;;6.28;5.78;;;12.20;99.90;;;;;;5083547;28;20044;-79
2021/05/12 03:52:25;;;;;;;6.25;5.75;;;12.30;99.90;;;;;;5105207;28;20070;-80
2021/05/12 03:54:52;;;;;;;5.60;5.10;;;12.40;99.90;;;;;;5094562;28;20072;-80
2021/05/12 03:57:19;;;;;;;3.65;3.45;;;12.40;99.90;;;;;;5095825;28;20153;-80
2021/05/12 03:59:46;;;;;;;3.38;3.08;;;12.40;99.90;;;;;;5111674;28;20097;-80
2021/05/12 04:02:13;;;;;;;2.53;2.33;;;12.40;99.90;;;;;;5110191;28;20052;-80
2021/05/12 04:04:40;;;;;;;2.28;2.17;;;12.40;99.90;;;;;;5091663;28;20044;-80
2021/05/12 04:07:07;;;;;;;2.05;1.95;;;12.50;99.90;;;;;;5108910;28;20047;-80
2021/05/12 04:09:34;;;;;;;2.40;2.05;;;12.40;99.90;;;;;;5107874;28;20051;-80
2021/05/12 04:12:01;;;;;;;1.92;1.70;;;12.50;99.90;;;;;;5107210;28;20455;-79
2021/05/12 04:14:28;;;;;;;2.20;2.00;;;12.50;99.90;;;;;;5106467;28;20489;-80
2021/05/12 04:16:54;;;;;;;1.83;1.50;;;12.50;99.90;;;;;;5105502;28;20408;-79
2021/05/12 04:19:21;;;;;;;3.08;1.70;;;12.50;99.90;;;;;;5086580;28;20052;-80
2021/05/12 04:21:48;;;;;;;1.35;1.35;;;12.50;99.90;;;;;;5091796;28;20072;-80
2021/05/12 04:24:15;;;;;;;1.83;1.73;;;12.50;99.90;;;;;;5109952;28;20052;-80
2021/05/12 04:26:42;;;;;;;1.70;1.60;;;12.50;99.90;;;;;;5109757;28;20040;-81
2021/05/12 04:29:09;;;;;;;1.90;1.80;;;12.50;99.90;;;;;;5110549;28;20040;-80
2021/05/12 04:31:36;;;;;;;1.90;1.80;;;12.50;99.90;;;;;;5091021;28;20043;-79
2021/05/12 04:34:03;;;;;;;1.92;1.63;;;12.60;99.90;;;;;;5090291;28;20076;-80
2021/05/12 04:36:30;;;;;;;2.03;1.92;;;12.60;99.90;;;;;;5108520;28;20122;-80
2021/05/12 04:38:57;;;;;;;1.95;1.80;;;12.70;99.90;;;;;;5089054;28;20068;-79
2021/05/12 04:41:24;;;;;;;2.67;2.25;;;12.70;99.90;;;;;;5088302;28;20492;-80
2021/05/12 04:43:52;;;;;;;1.60;1.45;;;12.70;99.90;;;;;;5087619;28;20055;-80
2021/05/12 04:46:19;;;;;;;1.50;1.50;;;12.80;99.90;;;;;;5087274;28;20048;-80
2021/05/12 04:48:45;;;;;;;1.45;1.45;;;12.80;99.90;;;;;;5105421;28;20107;-79
2021/05/12 04:51:12;;;;;;;3.03;1.70;;;12.80;99.90;;;;;;5104352;28;20446;-79
2021/05/12 04:53:39;;;;;;;1.30;1.20;;;12.80;99.90;;;;;;5085365;28;20044;-81
2021/05/12 04:56:06;;;;;;;1.80;1.67;;;12.80;99.90;;;;;;5084989;28;20040;-81
2021/05/12 04:58:33;;;;;;;2.17;1.58;;;12.90;99.90;;;;;;5102792;28;20089;-80
2021/05/12 05:01:00;;;;;;;1.98;1.77;;;12.80;99.90;;;;;;5102155;28;20094;-81
2021/05/12 05:03:27;;;;;;;3.55;2.05;;;12.70;99.90;;;;;;5102148;28;20052;-80
2021/05/12 05:05:54;;;;;;;2.20;2.00;;;12.80;99.90;;;;;;5100119;28;20130;-78
2021/05/12 05:08:21;;;;;;;3.15;2.85;;;12.80;99.90;;;;;;5081497;28;20550;-80
2021/05/12 05:10:48;;;;;;;3.17;3.03;;;12.80;99.90;;;;;;5099524;28;20048;-79
2021/05/12 05:13:15;;;;;;;2.97;2.78;;;12.90;99.90;;;;;;5081230;28;20052;-80
2021/05/12 05:15:45;;;;;;;2.95;2.78;;;12.90;99.90;;;;;;5080048;28;20500;-79
2021/05/12 05:18:12;;;;;;;3.40;3.20;;;13.00;99.90;;;;;;5079613;28;20083;-79
2021/05/12 05:20:39;;;;;;;3.25;3.05;;;13.00;99.90;;;;;;5079749;28;20059;-79
2021/05/12 05:23:06;;;;;;;3.70;3.50;;;13.00;99.90;;;;;;5079933;28;20106;-79
2021/05/12 05:25:33;;;;;;;3.70;3.40;;;12.90;99.90;;;;;;5078185;28;20055;-80
2021/05/12 05:28:00;;;;;;;4.05;3.65;;;12.80;99.90;;;;;;5077044;28;20097;-80
2021/05/12 05:30:27;;;;;;;3.40;3.13;;;12.80;99.90;;;;;;5078013;28;20044;-80
2021/05/12 05:33:01;;;;;;;3.35;3.00;;;12.90;99.90;;;;;;5096285;28;20492;-79
2021/05/12 05:35:28;;;;;;;3.75;3.53;;;12.90;99.90;;;;;;5077032;28;20416;-79
2021/05/12 05:37:55;;;;;;;4.60;4.20;;;13.00;99.90;;;;;;5095585;28;20138;-80
2021/05/12 05:40:22;;;;;;;6.00;5.50;;;13.10;99.90;;;;;;5077027;28;20052;-79
2021/05/12 05:43:02;;;;;;;5.43;4.75;;;13.20;99.90;;;;;;5079119;28;20086;-82
2021/05/12 05:45:29;;;;;;;7.00;5.18;;;13.20;99.90;;;;;;5112567;28;20077;-81
2021/05/12 05:47:56;;;;;;;3.08;2.75;;;13.30;99.90;;;;;;5111630;28;20044;-81
2021/05/12 05:50:23;;;;;;;2.97;2.70;;;13.20;99.90;;;;;;5092963;28;20066;-80
2021/05/12 05:52:54;;;;;;;3.28;2.95;;;13.10;99.90;;;;;;5091959;28;20062;-80
2021/05/12 05:55:21;;;;;;;3.05;2.95;;;13.10;99.90;;;;;;5090470;28;20471;-81
2021/05/12 05:57:50;;;;;;;3.72;3.47;;;13.20;99.90;;;;;;5108028;28;20048;-79
2021/05/12 06:00:18;;;;;;;4.45;4.18;;;13.20;99.90;;;;;;5106474;28;20087;-81
2021/05/12 06:02:45;;;;;;;4.20;3.90;;;13.30;99.90;;;;;;5088003;28;20052;-80
2021/05/12 06:05:12;;;;;;;4.20;3.83;;;13.30;99.90;;;;;;5106502;28;20052;-80
2021/05/12 06:07:39;;;;;;;4.75;3.42;;;13.30;99.90;;;;;;5105234;28;20079;-80
2021/05/12 06:10:07;;;;;;;6.13;4.13;;;13.20;99.90;;;;;;5085732;28;20477;-80
2021/05/12 06:12:34;;;;;;;5.28;4.80;;;13.20;99.90;;;;;;5109531;28;20056;-81
2021/05/12 06:15:02;;;;;;;5.53;4.95;;;13.30;99.90;;;;;;5089852;28;20502;-81
2021/05/12 06:17:50;;;;;;;5.60;5.20;;;13.20;99.90;;;;;;5089450;28;20048;-81
2021/05/12 06:20:17;;;;;;;5.60;5.20;;;13.20;99.90;;;;;;5104787;28;20048;-82
2021/05/12 06:22:44;;;;;;;7.32;6.10;;;13.20;99.90;;;;;;5087732;28;20048;-80
2021/05/12 06:25:12;;;;;;;8.18;6.50;;;13.30;99.90;;;;;;5086524;28;20052;-82
2021/05/12 06:27:43;;;;;;;10.18;2.65;;;13.30;99.90;;;;;;5105566;28;20462;-81
2021/05/12 06:30:10;;;;;;;2.70;2.45;;;13.30;99.90;;;;;;5085824;28;20508;-82
2021/05/12 06:32:37;;;;;;;2.88;2.38;;;13.20;99.90;;;;;;5085711;28;20080;-81
2021/05/12 06:35:04;;;;;;;2.20;1.90;;;13.20;99.90;;;;;;5084697;28;20056;-82
2021/05/12 06:37:31;;;;;;;2.70;2.50;;;13.20;99.90;;;;;;5104866;28;20458;-82
2021/05/12 06:39:58;;;;;;;4.40;2.30;;;13.10;99.90;;;;;;5089114;28;20048;-81
2021/05/12 06:42:24;;;;;;;2.10;1.95;;;13.10;99.90;;;;;;5110774;28;20064;-82
2021/05/12 06:44:51;;;;;;;1.98;1.42;;;13.00;99.90;;;;;;5087647;28;20055;-81
2021/05/12 06:47:18;;;;;;;1.85;1.75;;;12.90;99.90;;;;;;5090198;28;20074;-80
2021/05/12 06:49:45;;;;;;;1.95;1.85;;;13.00;99.90;;;;;;5108866;28;20471;-82
2021/05/12 06:52:11;;;;;;;2.20;2.10;;;12.90;99.90;;;;;;5089574;28;20078;-81
2021/05/12 06:54:38;;;;;;;1.88;1.77;;;13.00;99.90;;;;;;5089380;28;20076;-82
2021/05/12 06:57:05;;;;;;;2.20;2.10;;;13.00;99.90;;;;;;5107616;28;20079;-81
2021/05/12 06:59:32;;;;;;;2.17;2.08;;;13.10;99.90;;;;;;5107963;28;20048;-81
2021/05/12 07:01:59;;;;;;;2.10;2.00;;;13.20;99.90;;;;;;5089515;28;20040;-81
2021/05/12 07:04:26;;;;;;;2.20;2.00;;;13.20;99.90;;;;;;5106796;28;20411;-81
2021/05/12 07:06:52;;;;;;;2.22;2.13;;;13.20;99.90;;;;;;5106777;28;20048;-80
2021/05/12 07:09:19;;;;;;;2.45;2.30;;;13.20;99.90;;;;;;5107016;28;20044;-80
2021/05/12 07:11:46;;;;;;;2.67;2.13;;;13.10;99.90;;;;;;5106472;28;20067;-80
2021/05/12 07:14:13;;;;;;;2.60;2.40;;;13.20;99.90;;;;;;5087418;28;20048;-81
2021/05/12 07:16:40;;;;;;;2.35;2.25;;;13.20;99.90;;;;;;5087045;28;20048;-81
2021/05/12 07:19:07;;;;;;;2.28;2.17;;;13.20;99.90;;;;;;5106109;28;20509;-79
2021/05/12 07:21:34;;;;;;;2.85;2.60;;;13.20;99.90;;;;;;5105308;28;20052;-81
2021/05/12 07:24:01;;;;;;;2.38;2.28;;;13.20;99.90;;;;;;5087527;28;20060;-80
2021/05/12 07:26:28;;;;;;;2.20;2.10;;;13.20;99.90;;;;;;5104691;28;20500;-80
2021/05/12 07:28:55;;;;;;;2.10;2.00;;;13.10;99.90;;;;;;5103584;28;20044;-80
2021/05/12 07:31:23;;;;;;;3.47;2.28;;;13.20;99.90;;;;;;5105258;28;20059;-80
2021/05/12 07:33:50;;;;;;;2.35;2.25;;;13.30;99.90;;;;;;5107193;28;20127;-80
2021/05/12 07:36:17;;;;;;;3.15;2.95;;;13.20;99.90;;;;;;5115238;28;20032;-81
2021/05/12 07:38:44;;;;;;;2.67;2.50;;;13.20;99.90;;;;;;5095292;28;20052;-80
2021/05/12 07:41:12;;;;;;;2.75;2.40;;;13.20;99.90;;;;;;5112299;28;20048;-79
2021/05/12 07:43:38;;;;;;;2.67;2.58;;;13.20;99.90;;;;;;5092872;28;20043;-79
2021/05/12 07:46:06;;;;;;;2.90;2.70;;;13.10;99.90;;;;;;5110370;28;20083;-80
2021/05/12 07:48:32;;;;;;;2.38;2.28;;;13.20;99.90;;;;;;5109809;28;20044;-80
2021/05/12 07:51:00;;;;;;;2.53;2.42;;;13.30;99.90;;;;;;5108946;28;20046;-79
2021/05/12 07:53:27;;;;;;;2.90;2.70;;;13.40;99.90;;;;;;5089077;28;20465;-80
2021/05/12 07:55:53;;;;;;;3.17;2.78;;;13.30;99.90;;;;;;5105574;28;20105;-79
2021/05/12 07:58:20;;;;;;;3.60;3.30;;;13.30;99.90;;;;;;5107104;28;20499;-79
2021/05/12 08:00:47;;;;;;;5.38;3.80;;;13.30;99.90;;;;;;5088287;28;20101;-79
2021/05/12 08:03:14;;;;;;;3.35;3.15;;;13.40;99.90;;;;;;5110174;28;20060;-79
2021/05/12 08:05:41;;;;;;;4.97;3.92;;;13.40;99.90;;;;;;5110909;28;20075;-79
2021/05/12 08:08:09;;;;;;;3.70;3.38;;;13.40;99.90;;;;;;5109660;28;20048;-79
2021/05/12 08:10:36;;;;;;;6.68;4.43;;;13.40;99.90;;;;;;5108167;28;20073;-80
2021/05/12 08:13:03;;;;;;;4.50;4.00;;;13.40;99.90;;;;;;5089354;28;20044;-80
2021/05/12 08:15:30;;;;;;;5.03;3.90;;;13.30;99.90;;;;;;5107873;28;20086;-80
2021/05/12 08:17:56;;;;;;;4.00;3.70;;;13.40;99.90;;;;;;5106447;28;20535;-79
2021/05/12 08:20:24;;;;;;;4.80;3.80;;;13.40;99.90;;;;;;5106381;28;20055;-80
2021/05/12 08:22:51;;;;;;;4.28;3.90;;;13.30;99.90;;;;;;5105952;28;20520;-79
2021/05/12 08:25:17;;;;;;;4.05;3.70;;;13.20;99.90;;;;;;5086308;28;20127;-80
2021/05/12 08:27:45;;;;;;;4.30;3.90;;;13.30;99.90;;;;;;5103539;28;20044;-79
2021/05/12 08:30:13;;;;;;;5.25;3.78;;;13.40;99.90;;;;;;5084807;28;20067;-80
2021/05/12 08:32:39;;;;;;;3.88;3.58;;;13.30;99.90;;;;;;5101940;28;20051;-79
2021/05/12 08:35:06;;;;;;;5.65;4.50;;;13.30;99.90;;;;;;5083481;28;20052;-78
2021/05/12 08:37:33;;;;;;;5.60;5.00;;;13.20;99.90;;;;;;5082191;28;20094;-79
2021/05/12 08:40:00;;;;;;;4.30;4.00;;;13.20;99.90;;;;;;5099869;28;20079;-79
2021/05/12 08:42:27;;;;;;;4.53;4.18;;;13.30;99.90;;;;;;5101307;28;20091;-79
2021/05/12 08:44:56;;;;;;;5.00;4.60;;;13.30;99.90;;;;;;5100309;28;20079;-79
2021/05/12 08:47:24;;;;;;;6.60;5.03;;;13.40;99.90;;;;;;5100612;28;20052;-78
2021/05/12 08:49:53;;;;;;;5.22;4.78;;;13.20;99.90;;;;;;5100042;28;20051;-79
2021/05/12 08:52:23;;;;;;;4.85;4.45;;;13.20;99.90;;;;;;5080854;28;20500;-77
2021/05/12 08:54:50;;;;;;;5.47;4.97;;;13.20;99.90;;;;;;5099615;28;20044;-78
2021/05/12 08:57:17;;;;;;;7.60;5.65;;;13.00;99.90;;;;;;5099842;28;20105;-79
2021/05/12 08:59:43;;;;;;;10.05;5.97;;;13.20;99.90;;;;;;5098736;28;20484;-78
2021/05/12 09:02:10;;;;;;;11.48;6.45;;;13.10;99.90;;;;;;5096619;28;20071;-78
2021/05/12 09:04:37;;;;;;;48.92;18.15;;;13.10;99.90;;;;;;5098541;28;20478;-79
2021/05/12 09:07:04;;;;;;;16.02;9.05;;;13.10;99.90;;;;;;5098217;28;20416;-79
2021/05/12 09:09:31;;;;;;;11.95;7.45;;;13.20;99.90;;;;;;5079673;28;20044;-78
2021/05/12 09:11:58;;;;;;;8.48;6.30;;;13.20;99.90;;;;;;5080598;28;20044;-78
2021/05/12 09:14:27;;;;;;;7.13;6.43;;;13.20;99.90;;;;;;5098171;28;20048;-79
2021/05/12 09:16:54;;;;;;;6.00;5.40;;;13.20;99.90;;;;;;5078909;28;20467;-78
2021/05/12 09:19:24;;;;;;;7.88;7.00;;;13.40;99.90;;;;;;5097670;28;20052;-78
2021/05/12 09:21:54;;;;;;;6.20;5.57;;;13.40;99.90;;;;;;5097637;28;20048;-78
2021/05/12 09:24:30;;;;;;;6.30;5.60;;;13.40;99.90;;;;;;5099685;28;20043;-79
2021/05/12 09:27:00;;;;;;;5.40;4.90;;;13.30;99.90;;;;;;5092184;28;20067;-79
2021/05/12 09:29:36;;;;;;;8.65;5.70;;;13.30;99.90;;;;;;5108290;28;20081;-79
2021/05/12 09:32:05;;;;;;;8.02;5.78;;;13.30;99.90;;;;;;5087262;28;20052;-79
2021/05/12 09:34:56;;;;;;;6.53;5.28;;;13.10;99.90;;;;;;5105341;28;20131;-79
2021/05/12 09:37:37;;;;;;;7.60;5.40;;;12.90;99.90;;;;;;5104772;28;20044;-78
2021/05/12 09:40:08;;;;;;;6.28;5.65;;;13.00;99.90;;;;;;5103985;28;20071;-78
2021/05/12 09:42:37;;;;;;;7.30;6.28;;;13.00;99.90;;;;;;5103451;28;20443;-78
2021/05/12 09:45:21;;;;;;;7.03;5.63;;;13.10;99.90;;;;;;5101532;28;20082;-79
2021/05/12 09:47:54;;;;;;;7.13;6.32;;;12.90;99.90;;;;;;5102217;28;20080;-78
2021/05/12 09:50:26;;;;;;;9.02;6.15;;;13.00;99.90;;;;;;5101335;28;20044;-79
2021/05/12 09:53:01;;;;;;;9.27;6.00;;;13.00;99.90;;;;;;5082450;28;20475;-78
2021/05/12 09:55:47;;;;;;;10.85;6.90;;;13.10;99.90;;;;;;5082067;28;20492;-79
2021/05/12 09:58:18;;;;;;;7.43;6.05;;;13.20;99.90;;;;;;5097769;28;20087;-78
2021/05/12 10:00:48;;;;;;;10.15;6.30;;;13.10;99.90;;;;;;5105224;28;20055;-78
2021/05/12 10:03:15;;;;;;;11.40;6.35;;;13.10;99.90;;;;;;5105339;28;20052;-78
2021/05/12 10:05:59;;;;;;;7.75;6.28;;;13.10;99.90;;;;;;5100728;28;20515;-78
2021/05/12 10:08:33;;;;;;;6.95;6.18;;;13.30;99.90;;;;;;5100300;28;20048;-78
2021/05/12 10:11:07;;;;;;;6.88;6.18;;;13.30;99.90;;;;;;5080061;28;20423;-78
2021/05/12 10:13:37;;;;;;;10.27;6.95;;;13.00;99.90;;;;;;5104956;28;20040;-79
2021/05/12 10:16:08;;;;;;;9.32;7.50;;;13.00;99.90;;;;;;5073710;28;20056;-78
2021/05/12 10:18:35;;;;;;;9.90;7.25;;;13.00;99.90;;;;;;5086226;28;20048;-78
2021/05/12 10:21:02;;;;;;;8.10;6.85;;;13.00;99.90;;;;;;5086541;28;20139;-78
2021/05/12 10:23:29;;;;;;;7.20;6.40;;;13.10;99.90;;;;;;5087452;28;20048;-78
2021/05/12 10:25:58;;;;;;;7.38;6.55;;;13.10;99.90;;;;;;5086985;28;20048;-78
2021/05/12 10:28:26;;;;;;;8.77;7.05;;;13.10;99.90;;;;;;5088403;28;20068;-79
2021/05/12 10:30:54;;;;;;;6.88;6.35;;;13.20;99.90;;;;;;5088038;28;20049;-79
2021/05/12 10:33:44;;;;;;;8.82;6.68;;;13.10;99.90;;;;;;5069571;28;20128;-79
2021/05/12 10:36:12;;;;;;;8.85;6.57;;;13.10;99.90;;;;;;5088333;28;20177;-78
2021/05/12 10:38:39;;;;;;;6.93;6.22;;;13.20;99.90;;;;;;5069701;28;20044;-78
2021/05/12 10:41:06;;;;;;;8.63;5.70;;;13.30;99.90;;;;;;5070301;28;20052;-78
2021/05/12 10:43:39;;;;;;;6.18;5.68;;;13.40;99.90;;;;;;5087852;28;20052;-78
2021/05/12 10:46:12;;;;;;;;;;;13.50;99.90;;;;;;5089125;28;20118;-78
2021/05/12 10:48:47;;;;;;;6.47;5.88;;;13.40;99.90;;;;;;5067788;28;19960;-78
2021/05/12 10:51:20;;;;;;;6.65;6.05;;;13.20;99.90;;;;;;5069131;28;20041;-78
2021/05/12 10:53:50;;;;;;;7.25;6.13;;;13.30;99.90;;;;;;5087174;28;20064;-78
2021/05/12 10:56:19;;;;;;;8.45;6.50;;;13.30;99.90;;;;;;5086875;28;20051;-79
2021/05/12 10:58:56;;;;;;;7.18;6.47;;;13.30;99.90;;;;;;5086817;28;20052;-78
2021/05/12 11:01:25;;;;;;;9.07;7.07;;;13.30;99.90;;;;;;5086680;28;20052;-78
2021/05/12 11:03:52;;;;;;;6.00;5.50;;;13.20;99.90;;;;;;5085998;28;20052;-78
2021/05/12 11:06:24;;;;;;;5.60;5.10;;;13.30;99.90;;;;;;5086303;28;20489;-79
2021/05/12 11:09:06;;;;;;;5.03;4.63;;;13.30;99.90;;;;;;5087081;28;20547;-78
2021/05/12 11:12:00;;;;;;;5.47;4.93;;;13.20;99.90;;;;;;5068625;28;20048;-78
2021/05/12 11:14:32;;;;;;;5.22;4.82;;;13.10;99.90;;;;;;5083009;28;20520;-78
2021/05/12 11:17:18;;;;;;;5.70;5.20;;;12.90;99.90;;;;;;5114966;28;20052;-79
2021/05/12 11:19:47;;;;;;;8.88;5.90;;;12.80;99.90;;;;;;5113561;28;20076;-79
2021/05/12 11:22:36;;;;;;;8.93;6.00;;;12.80;99.90;;;;;;5113314;28;20039;-79
2021/05/12 11:33:30;;;;;;;6.07;5.50;;;12.80;99.90;;;;;;5109306;28;20044;-80
2021/05/12 11:36:13;;;;;;;7.68;6.88;;;12.80;99.90;;;;;;5109395;28;20401;-80
2021/05/12 11:38:41;;;;;;;6.07;5.57;;;12.80;99.90;;;;;;5108715;28;20429;-80
2021/05/12 11:41:09;;;;;;;6.57;5.88;;;12.80;99.90;;;;;;5107299;28;20048;-79
2021/05/12 11:43:42;;;;;;;6.03;5.53;;;12.80;99.90;;;;;;5106486;28;20055;-80
2021/05/12 11:46:20;;;;;;;12.82;5.72;;;12.80;99.90;;;;;;5104689;28;20087;-80
2021/05/12 11:48:53;;;;;;;6.00;5.45;;;12.80;99.90;;;;;;5107390;28;20051;-81
2021/05/12 11:51:38;;;;;;;5.95;5.20;;;12.70;99.90;;;;;;5088430;28;20040;-79
2021/05/12 11:54:21;;;;;;;5.65;4.55;;;12.60;99.90;;;;;;5107515;28;20048;-79
2021/05/12 11:56:53;;;;;;;7.07;5.90;;;12.60;99.90;;;;;;5105640;28;20051;-81
2021/05/12 11:59:33;;;;;;;6.10;5.25;;;12.70;99.90;;;;;;5104281;28;20125;-81
2021/05/12 12:02:10;;;;;;;7.30;4.90;;;13.00;99.90;;;;;;5107971;28;20052;-82
2021/05/12 12:05:00;;;;;;;10.43;5.25;;;13.10;99.90;;;;;;5109550;28;20048;-80
2021/05/12 12:07:27;;;;;;;13.02;5.97;;;13.10;99.90;;;;;;5089797;28;20432;-81
2021/05/12 12:10:05;;;;;;;62.67;30.15;;;13.30;99.90;;;;;;5107205;28;20044;-81
2021/05/12 12:12:35;;;;;;;119.47;51.90;;;13.20;99.90;;;;;;5107020;28;20055;-81
2021/05/12 12:15:08;;;;;;;8.35;6.32;;;12.90;99.90;;;;;;5106167;28;20568;-80
2021/05/12 12:17:35;;;;;;;;;;;13.00;99.90;;;;;;5105997;28;20078;-81
2021/05/12 12:20:07;;;;;;;9.10;6.07;;;13.00;99.90;;;;;;5105080;28;19984;-81
2021/05/12 12:22:34;;;;;;;5.18;4.63;;;13.00;99.90;;;;;;5105822;28;20052;-81
2021/05/12 12:25:11;;;;;;;5.88;5.28;;;13.00;99.90;;;;;;5084819;28;20052;-80
2021/05/12 12:27:42;;;;;;;7.88;6.10;;;13.00;99.90;;;;;;5102637;28;20084;-80
2021/05/12 12:30:13;;;;;;;10.70;8.77;;;13.00;99.90;;;;;;5083816;28;20070;-81
2021/05/12 12:32:40;;;;;;;27.02;20.38;;;12.70;99.90;;;;;;5102050;28;20044;-81
2021/05/12 12:35:08;;;;;;;13.20;11.30;;;12.50;99.90;;;;;;5081577;28;20069;-81
2021/05/12 12:37:38;;;;;;;9.15;8.20;;;12.40;99.90;;;;;;5100059;28;20393;-81
2021/05/12 12:40:07;;;;;;;8.18;6.20;;;12.30;99.90;;;;;;5101521;28;20059;-79
2021/05/12 12:42:44;;;;;;;6.90;6.10;;;12.30;99.90;;;;;;5100128;28;20145;-80
2021/05/12 12:45:27;;;;;;;10.27;9.27;;;12.30;99.90;;;;;;5100047;28;20048;-80
2021/05/12 12:48:03;;;;;;;11.35;6.80;;;12.30;99.90;;;;;;5081119;28;20048;-80
2021/05/12 12:50:35;;;;;;;6.88;6.20;;;12.40;99.90;;;;;;5080140;28;20044;-80
2021/05/12 12:53:04;;;;;;;11.93;8.48;;;12.40;99.90;;;;;;5080639;28;20048;-80
2021/05/12 12:55:34;;;;;;;5.00;4.60;;;12.50;99.90;;;;;;5098496;28;20474;-80
2021/05/12 12:58:05;;;;;;;5.38;3.72;;;12.60;99.90;;;;;;5097925;28;20044;-81
2021/05/12 13:00:36;;;;;;;4.15;3.60;;;12.50;99.90;;;;;;5079534;28;20051;-80
2021/05/12 13:03:11;;;;;;;5.05;3.25;;;12.40;99.90;;;;;;5098445;28;20515;-80
2021/05/12 13:05:50;;;;;;;4.40;3.53;;;12.20;99.90;;;;;;5101150;28;20120;-80